Wilmington, NC

4:48 PM EDT on July 04, 2015 (GMT -0400)
Wilmington International | | Change Station
CLOSE
Current Station
Airport
Location: Wilmington,
Elevation: 33 ft
Nearby Weather Stations

Elev 33 ft 34.27 °N, 77.90 °W | Updated 55 minutes ago

Clear
Clear
92 °F
Feels Like 96 °F
N
18
Wind Variable Wind from WSW
Gusts 24 mph

Today
High -- | Low -- °F
--% Chance of Precip.
Yesterday
High -- | Low -- °F
Precip. -- in
6:04 AM 8:27 PM
Waning Gibbous, 90% visible
Pressure 30.02 in
Visibility 10.0 miles
Clouds Few 6000 ft
Heat Index 96 °F
Dew Point 68 °F
Humidity 45%
Rainfall 0.00 in
Snow Depth Not available.
UV 8 out of 12
Pollen 4.00 out of 12
Air Quality Not available.
Flu Activity Not available.
METAR KILM 041953Z 25016G21KT 10SM FEW060 33/20 A3002 RMK AO2 SLP164 T03330200

More Conditions Fewer Conditions

Pressure 30.02 in
Visibility 10.0 miles
Clouds Few 6000 ft
Heat Index 96 °F
Dew Point 68 °F
Humidity 45%
Rainfall 0.00 in
Snow Depth Not available.
UV 8 out of 12
Pollen 4.00 out of 12
Air Quality Not available.
Flu Activity Not available.
METAR KILM 041953Z 25016G21KT 10SM FEW060 33/20 A3002 RMK AO2 SLP164 T03330200

More Conditions Fewer Conditions

10-Day Weather Forecast

×

Almanac

Astronomy

Jul. 04, 2015 Rise Set
Actual Time
Civil Twilight
Nautical Twilight
Astronomical Twilight
Moon
Length of Visible Light
Length of Day
Tomorrow will be .
, % of the Moon is Illuminated

Today's Extremes

State Highs State Lows

Community

WunderPhotos

Upload Photos

1,835,091 photos uploaded!

WunderBlogs® & News

Nearby

Air Quality

  Air Quality AQ Index Pollutant
Not available.

Snow Depth

Station Depth Elevation

Earthquake Activity

City Distance Mag. Time & Date
Minimum magnitude displayed is 2.5.

Coastal Water Temperatures

Place Temperature

Stations

Nearby Weather Stations

Station Location Temp. Windchill Dew Point Humidity Wind Precip. Elev Updated Type